首页
METAR-TAF:

METAR-TAF

机场 :

亨德森, 内华达州, 美国

纬度: 35-58-35N, 经度: 115-07-58W, 海拔: 749米

当前天气观测

该预报发布于1小时和8分钟前的20:56 UTC
风速4节,风向东北
温度 22°C
湿度 31%
气压 1015 hPa
能見度: 16.1公里
阴天层高于10000英尺

METAR: KHND 242056Z 05004KT 10SM OVC100 22/04 A2997 RMK AO2 SLP136 T02220039 58014 $

时间: 15:04 (22:04 UTC)

预报

该预报发布于4小时和32分钟前的17:32 UTC
预报有效从24日的 18点(UTC)到 25日的 18点(UTC)
风速6节,风向北转东北
能見度: 10公里
散云层高于8000英尺
从 24日的 1900点(UTC)
风速5节,风向多变
能見度: 10公里
散云层高于8000英尺
从 25日的 0500点(UTC)
风速6节,风向南转西南
能見度: 10公里
少量云层高于8000英尺
从 25日的 1000点(UTC)
风速11节,风向西南
能見度: 10公里
少量云层高于8000英尺
从 25日的 1600点(UTC)
风速11节,风向
能見度: 10公里
少量云层高于8000英尺

TAF: KHND 241732Z 2418/2518 03006KT P6SM SCT080 FM241900 VRB05KT P6SM SCT080 FM250500 20006KT P6SM FEW080 FM251000 22011KT P6SM FEW080 FM251600 17011KT P6SM FEW080

超过4000个机场的气象观测和天气预报(METAR&TAF报告)。

可查询的气象台以黄色和红色小点在地图上表示。

将鼠标移到小点上方,可查看气象台名称。

然后点击查看天气观测和预报。

如需切换地图:点击带黑十字的绿色按钮放大地图;点击带横线的绿色按钮缩小地图;或者点击绿色箭头查看邻近地区的地图。


METAR-TAF: